Time;durP1;ratioP1;P1;durP2;ratioP2;P2;SDS_P1;SDS_P2;PMS_P1;PMS_P2;Temp;Humidity;BMP_temperature;BMP_pressure;BME280_temperature;BME280_humidity;BME280_pressure;Samples;Min_cycle;Max_cycle;Signal;HPM_P1;HPM_P2
2023/04/09 00:02:09;;;;;;;;;;;;;;;13.65;56.24;102144.92;110534;1269;23633;-50
2023/04/09 00:04:37;;;;;;;;;;;;;;;13.62;56.35;102142.67;110223;1276;22434;-49
2023/04/09 00:07:06;;;;;;;;;;;;;;;13.62;56.27;102140.59;110544;1268;22527;-49
2023/04/09 00:09:34;;;;;;;;;;;;;;;13.62;56.17;102140.25;110534;1276;22977;-49
2023/04/09 00:12:03;;;;;;;;;;;;;;;13.59;56.19;102141.33;110515;1269;22412;-49
2023/04/09 00:14:32;;;;;;;;;;;;;;;13.57;56.29;102146.23;110541;1269;22460;-49
2023/04/09 00:17:00;;;;;;;;;;;;;;;13.53;56.44;102147.33;110389;1272;22430;-49
2023/04/09 00:19:28;;;;;;;;;;;;;;;13.54;56.38;102148.36;110244;1273;22452;-48
2023/04/09 00:21:56;;;;;;;;;;;;;;;13.53;56.38;102152.55;110538;1268;22414;-48
2023/04/09 00:24:25;;;;;;;;;;;;;;;13.52;56.45;102154.13;110534;1268;22395;-49
2023/04/09 00:26:53;;;;;;;;;;;;;;;13.50;56.48;102157.28;110499;1276;22408;-49
2023/04/09 00:29:21;;;;;;;;;;;;;;;13.48;56.59;102151.39;109749;1276;1002272;-50
2023/04/09 00:31:50;;;;;;;;;;;;;;;13.48;56.69;102155.22;110488;1273;23231;-49
2023/04/09 00:34:18;;;;;;;;;;;;;;;13.48;56.91;102151.21;110478;1273;22520;-49
2023/04/09 00:36:46;;;;;;;;;;;;;;;13.47;57.02;102151.39;110356;1276;23227;-49
2023/04/09 00:39:15;;;;;;;;;;;;;;;13.47;57.01;102147.56;110523;1269;23163;-50
2023/04/09 00:41:44;;;;;;;;;;;;;;;13.45;57.16;102148.46;110493;1269;22596;-49
2023/04/09 00:44:12;;;;;;;;;;;;;;;13.40;57.41;102147.64;110487;1276;22385;-51
2023/04/09 00:46:42;;;;;;;;;;;;;;;13.39;57.50;102153.59;110499;1276;22395;-49
2023/04/09 00:49:11;;;;;;;;;;;;;;;13.38;57.61;102154.30;109758;1268;1002841;-49
2023/04/09 00:51:39;;;;;;;;;;;;;;;13.46;57.45;102153.51;110436;1270;22510;-49
2023/04/09 00:54:08;;;;;;;;;;;;;;;13.47;57.42;102151.93;110523;1276;22503;-49
2023/04/09 00:56:36;;;;;;;;;;;;;;;13.46;57.47;102149.32;110320;1276;22481;-49
2023/04/09 00:59:04;;;;;;;;;;;;;;;13.46;57.56;102149.66;110375;1273;22410;-49
2023/04/09 01:01:33;;;;;;;;;;;;;;;13.47;57.55;102146.54;110533;1268;23089;-49
2023/04/09 01:04:01;;;;;;;;;;;;;;;13.46;57.53;102146.19;110493;1276;23063;-49
2023/04/09 01:06:37;;;;;;;;;;;;;;;13.43;57.56;102145.17;110535;1268;22390;-49
2023/04/09 01:09:06;;;;;;;;;;;;;;;13.40;57.80;102145.04;110269;1274;22425;-49
2023/04/09 01:11:35;;;;;;;;;;;;;;;13.41;57.67;102141.52;110476;1276;22490;-49
2023/04/09 01:14:03;;;;;;;;;;;;;;;13.38;57.81;102140.88;110190;1276;22504;-49
2023/04/09 01:16:34;;;;;;;;;;;;;;;13.31;58.06;102138.34;110062;1276;23323;-49
2023/04/09 01:19:05;;;;;;;;;;;;;;;13.20;58.32;102139.33;109625;1277;1002771;-48
2023/04/09 01:21:34;;;;;;;;;;;;;;;13.19;58.32;102142.66;110437;1272;22380;-49
2023/04/09 01:24:02;;;;;;;;;;;;;;;13.19;58.37;102142.14;109612;1269;1002980;-49
2023/04/09 01:27:02;;;;;;;;;;;;;;;13.21;58.16;102142.11;110462;1276;23172;-49
2023/04/09 01:29:44;;;;;;;;;;;;;;;13.21;58.01;102137.41;110290;1268;22422;-49
2023/04/09 01:32:12;;;;;;;;;;;;;;;13.21;57.92;102137.59;110501;1268;22423;-49
2023/04/09 01:34:45;;;;;;;;;;;;;;;13.22;57.86;102137.23;110162;1279;23278;-49
2023/04/09 01:37:14;;;;;;;;;;;;;;;13.21;57.76;102135.65;109915;1279;22437;-49
2023/04/09 01:39:42;;;;;;;;;;;;;;;13.19;57.80;102134.11;110173;1271;22435;-50
2023/04/09 01:42:11;;;;;;;;;;;;;;;13.15;57.82;102136.95;110146;1279;22542;-49
2023/04/09 01:44:39;;;;;;;;;;;;;;;13.16;57.78;102133.30;110084;1272;22403;-49
2023/04/09 01:47:08;;;;;;;;;;;;;;;13.20;57.67;102130.79;110035;1279;22415;-49
2023/04/09 01:49:36;;;;;;;;;;;;;;;13.21;57.54;102130.10;109398;1279;1003001;-48
2023/04/09 01:52:05;;;;;;;;;;;;;;;13.20;57.53;102134.27;109969;1276;22495;-49
2023/04/09 01:54:33;;;;;;;;;;;;;;;13.20;57.37;102129.58;109423;1279;1002389;-48
2023/04/09 01:57:01;;;;;;;;;;;;;;;13.19;57.39;102126.81;110170;1272;23136;-49
2023/04/09 01:59:33;;;;;;;;;;;;;;;13.19;57.33;102127.31;110207;1272;22445;-48
2023/04/09 02:02:05;;;;;;;;;;;;;;;13.16;57.38;102129.27;109433;1279;1002787;-48
2023/04/09 02:04:38;;;;;;;;;;;;;;;13.10;57.48;102130.55;110117;1279;22503;-49
2023/04/09 02:07:06;;;;;;;;;;;;;;;13.03;57.52;102126.25;110458;1273;22449;-49
2023/04/09 02:09:36;;;;;;;;;;;;;;;13.00;57.68;102121.91;109487;1273;1002720;-49
2023/04/09 02:12:05;;;;;;;;;;;;;;;12.99;57.72;102120.52;110499;1269;22405;-48
2023/04/09 02:14:33;;;;;;;;;;;;;;;12.96;57.87;102120.02;110357;1277;22393;-48
2023/04/09 02:17:02;;;;;;;;;;;;;;;12.98;57.76;102121.41;110373;1276;23117;-48
2023/04/09 02:19:40;;;;;;;;;;;;;;;12.98;57.76;102116.00;110494;1273;22371;-49
2023/04/09 02:22:15;;;;;;;;;;;;;;;12.99;57.59;102114.07;110505;1272;22415;-49
2023/04/09 02:24:44;;;;;;;;;;;;;;;13.01;57.58;102115.10;110490;1273;22395;-49
2023/04/09 02:27:13;;;;;;;;;;;;;;;12.98;57.59;102114.95;110525;1269;22387;-49
2023/04/09 02:29:42;;;;;;;;;;;;;;;12.96;57.71;102113.59;109715;1273;1002437;-49
2023/04/09 02:32:10;;;;;;;;;;;;;;;12.96;57.59;102112.20;110251;1270;319176;-49
2023/04/09 02:34:42;;;;;;;;;;;;;;;12.93;57.60;102112.73;110492;1273;22419;-49
2023/04/09 02:37:11;;;;;;;;;;;;;;;12.90;57.62;102113.30;110508;1272;22400;-48
2023/04/09 02:39:39;;;;;;;;;;;;;;;12.90;57.73;102109.29;110483;1268;22413;-48
2023/04/09 02:42:08;;;;;;;;;;;;;;;12.88;57.75;102108.98;110490;1269;22431;-49
2023/04/09 02:44:36;;;;;;;;;;;;;;;12.84;57.92;102111.80;110506;1268;23174;-49
2023/04/09 02:47:08;;;;;;;;;;;;;;;12.86;57.97;102107.77;110338;1269;22427;-49
2023/04/09 02:49:38;;;;;;;;;;;;;;;12.92;57.93;102111.71;110400;1274;22410;-48
2023/04/09 02:52:06;;;;;;;;;;;;;;;12.96;57.81;102110.27;110418;1268;22421;-48
2023/04/09 02:54:34;;;;;;;;;;;;;;;12.98;57.89;102111.65;109804;1268;1002165;-49
2023/04/09 02:57:03;;;;;;;;;;;;;;;13.01;57.89;102112.48;110380;1273;22402;-48
2023/04/09 02:59:33;;;;;;;;;;;;;;;13.00;57.92;102110.06;110355;1269;22425;-49
2023/04/09 03:02:01;;;;;;;;;;;;;;;12.92;58.02;102105.27;109598;1276;1002206;-49
2023/04/09 03:04:29;;;;;;;;;;;;;;;12.88;58.09;102108.09;110473;1276;22383;-48
2023/04/09 03:06:58;;;;;;;;;;;;;;;12.89;58.11;102111.23;110495;1270;22525;-48
2023/04/09 03:09:26;;;;;;;;;;;;;;;12.87;57.95;102112.10;110479;1268;23122;-48
2023/04/09 03:11:56;;;;;;;;;;;;;;;12.83;57.97;102115.79;109730;1276;1002986;-49
2023/04/09 03:14:24;;;;;;;;;;;;;;;12.78;57.92;102120.04;110478;1272;23072;-49
2023/04/09 03:16:52;;;;;;;;;;;;;;;12.74;58.10;102120.59;110168;1276;22423;-48
2023/04/09 03:19:20;;;;;;;;;;;;;;;12.76;58.27;102126.33;110108;1276;22430;-49
2023/04/09 03:21:50;;;;;;;;;;;;;;;12.80;58.28;102126.63;110523;1269;22448;-49
2023/04/09 03:24:20;;;;;;;;;;;;;;;12.81;58.41;102126.27;110359;1276;22496;-49
2023/04/09 03:26:49;;;;;;;;;;;;;;;12.82;58.82;102130.79;110077;1275;22384;-49
2023/04/09 03:29:18;;;;;;;;;;;;;;;12.80;58.96;102128.72;110347;1274;22385;-48
2023/04/09 03:31:47;;;;;;;;;;;;;;;12.79;58.96;102128.39;109690;1275;1002684;-49
2023/04/09 03:34:15;;;;;;;;;;;;;;;12.80;58.95;102128.37;110369;1274;22433;-49
2023/04/09 03:36:44;;;;;;;;;;;;;;;12.78;59.15;102129.43;110379;1276;22456;-49
2023/04/09 03:39:22;;;;;;;;;;;;;;;12.76;59.29;102131.89;110312;1271;22536;-48
2023/04/09 03:41:51;;;;;;;;;;;;;;;12.76;59.32;102133.29;110349;1270;22434;-49
2023/04/09 03:44:20;;;;;;;;;;;;;;;12.81;59.31;102127.50;110488;1276;22777;-49
2023/04/09 03:47:00;;;;;;;;;;;;;;;12.87;59.35;102130.23;110372;1270;22469;-48
2023/04/09 03:49:29;;;;;;;;;;;;;;;12.87;59.41;102130.40;109654;1276;1002584;-49
2023/04/09 03:52:03;;;;;;;;;;;;;;;12.83;59.55;102129.20;110416;1269;22440;-48
2023/04/09 03:54:37;;;;;;;;;;;;;;;12.86;59.54;102127.10;110233;1278;22463;-48
2023/04/09 03:57:10;;;;;;;;;;;;;;;12.89;59.57;102125.33;109546;1276;1002333;-48
2023/04/09 03:59:45;;;;;;;;;;;;;;;12.91;59.70;102125.84;110267;1277;22576;-49
2023/04/09 04:02:15;;;;;;;;;;;;;;;12.92;59.46;102121.98;110293;1270;22424;-49
2023/04/09 04:04:46;;;;;;;;;;;;;;;12.93;59.16;102120.06;110351;1270;22413;-49
2023/04/09 04:07:16;;;;;;;;;;;;;;;12.93;59.22;102119.54;110291;1277;23327;-48
2023/04/09 04:09:51;;;;;;;;;;;;;;;12.94;59.16;102115.70;110276;1278;22465;-49
2023/04/09 04:12:25;;;;;;;;;;;;;;;12.95;59.06;102113.77;110382;1277;23233;-48
2023/04/09 04:15:10;;;;;;;;;;;;;;;12.97;58.98;102115.31;110063;1276;22422;-48
2023/04/09 04:17:52;;;;;;;;;;;;;;;12.96;58.92;102111.49;109944;1281;22431;-48
2023/04/09 04:20:33;;;;;;;;;;;;;;;12.95;58.91;102113.42;109953;1277;22429;-49
2023/04/09 04:23:22;;;;;;;;;;;;;;;12.95;58.71;102112.04;110005;1280;22440;-49
2023/04/09 04:26:05;;;;;;;;;;;;;;;12.94;58.75;102115.16;110000;1280;22639;-48
2023/04/09 04:28:35;;;;;;;;;;;;;;;12.95;58.73;102118.99;110004;1280;22414;-48
2023/04/09 04:31:10;;;;;;;;;;;;;;;12.95;58.57;102122.82;109977;1279;22428;-49
2023/04/09 04:33:39;;;;;;;;;;;;;;;12.97;58.52;102128.37;109991;1280;22432;-48
2023/04/09 04:36:11;;;;;;;;;;;;;;;12.99;58.71;102132.02;109973;1273;22456;-49
2023/04/09 04:38:45;;;;;;;;;;;;;;;13.02;58.58;102136.70;110009;1280;23300;-49
2023/04/09 04:41:44;;;;;;;;;;;;;;;13.04;58.51;102140.35;110022;1280;22454;-49
2023/04/09 04:44:15;;;;;;;;;;;;;;;13.07;58.54;102144.00;109175;1273;1003007;-49
2023/04/09 04:46:45;;;;;;;;;;;;;;;13.10;58.44;102144.14;110252;1276;22482;-48
2023/04/09 04:49:14;;;;;;;;;;;;;;;13.13;58.52;102147.77;110360;1270;22389;-48
2023/04/09 04:51:48;;;;;;;;;;;;;;;13.16;58.63;102151.05;110394;1276;22437;-49
2023/04/09 04:54:16;;;;;;;;;;;;;;;13.18;58.93;102153.64;110397;1273;23181;-48
2023/04/09 04:56:53;;;;;;;;;;;;;;;13.23;58.92;102155.86;110414;1270;23253;-48
2023/04/09 04:59:50;;;;;;;;;;;;;;;13.27;58.56;102160.52;110280;1276;22455;-49
2023/04/09 05:02:19;;;;;;;;;;;;;;;13.29;58.34;102164.50;110397;1268;22437;-49
2023/04/09 05:05:00;;;;;;;;;;;;;;;13.30;58.23;102164.14;110367;1273;22391;-49
2023/04/09 05:07:36;;;;;;;;;;;;;;;13.32;58.20;102163.09;110264;1272;22521;-48
2023/04/09 05:10:05;;;;;;;;;;;;;;;13.35;58.28;102160.95;110155;1273;22436;-48
2023/04/09 05:12:42;;;;;;;;;;;;;;;13.38;58.26;102162.13;110353;1276;22412;-49
2023/04/09 05:15:11;;;;;;;;;;;;;;;13.39;58.25;102163.70;110209;1276;23039;-50
2023/04/09 05:17:42;;;;;;;;;;;;;;;13.38;58.17;102160.75;110353;1276;22488;-48
2023/04/09 05:20:11;;;;;;;;;;;;;;;13.39;58.24;102161.26;110447;1270;22420;-49
2023/04/09 05:22:48;;;;;;;;;;;;;;;13.43;58.28;102158.77;110196;1273;23050;-48
2023/04/09 05:25:16;;;;;;;;;;;;;;;13.43;58.33;102157.55;110410;1270;23366;-48
2023/04/09 05:27:46;;;;;;;;;;;;;;;13.44;58.34;102154.05;110478;1269;23120;-49
2023/04/09 05:30:15;;;;;;;;;;;;;;;13.42;58.23;102154.77;110398;1270;22447;-49
2023/04/09 05:32:43;;;;;;;;;;;;;;;13.42;58.28;102160.18;110190;1273;22452;-48
2023/04/09 05:35:12;;;;;;;;;;;;;;;13.44;58.23;102165.73;110367;1276;22443;-48
2023/04/09 05:37:42;;;;;;;;;;;;;;;13.45;58.25;102169.20;110346;1269;22430;-49
2023/04/09 05:40:11;;;;;;;;;;;;;;;13.44;58.41;102169.92;110395;1270;22414;-49
2023/04/09 05:42:40;;;;;;;;;;;;;;;13.50;58.29;102172.98;110117;1276;22427;-48
2023/04/09 05:45:17;;;;;;;;;;;;;;;13.53;57.99;102172.09;110368;1276;23334;-48
2023/04/09 05:47:50;;;;;;;;;;;;;;;13.54;57.83;102172.23;110413;1269;22424;-49
2023/04/09 05:50:21;;;;;;;;;;;;;;;13.56;58.02;102174.84;110353;1270;23213;-48
2023/04/09 05:52:59;;;;;;;;;;;;;;;13.60;58.04;102183.86;110374;1270;23304;-48
2023/04/09 05:55:36;;;;;;;;;;;;;;;13.63;57.97;102184.17;110352;1270;22416;-48
2023/04/09 05:58:04;;;;;;;;;;;;;;;13.61;57.73;102180.17;110421;1268;22533;-48
2023/04/09 06:00:33;;;;;;;;;;;;;;;13.61;57.88;102178.80;110151;1276;22441;-48
2023/04/09 06:03:03;;;;;;;;;;;;;;;13.63;57.91;102183.31;110369;1276;22484;-49
2023/04/09 06:05:31;;;;;;;;;;;;;;;13.63;58.00;102183.48;109686;1276;1002330;-49
2023/04/09 06:08:00;;;;;;;;;;;;;;;13.67;57.95;102185.34;110136;1273;22439;-48
2023/04/09 06:10:31;;;;;;;;;;;;;;;13.69;57.87;102186.89;110473;1269;22436;-49
2023/04/09 06:12:59;;;;;;;;;;;;;;;13.75;57.92;102185.42;110383;1276;22500;-49
2023/04/09 06:15:36;;;;;;;;;;;;;;;13.79;57.85;102189.56;110436;1276;22386;-48
2023/04/09 06:18:05;;;;;;;;;;;;;;;13.86;57.80;102188.95;110474;1269;22433;-49
2023/04/09 06:20:34;;;;;;;;;;;;;;;13.92;57.65;102186.95;110493;1268;22400;-48
2023/04/09 06:23:05;;;;;;;;;;;;;;;13.97;57.36;102188.29;110178;1276;22405;-48
2023/04/09 06:25:34;;;;;;;;;;;;;;;14.00;57.10;102190.52;110458;1276;22417;-49
2023/04/09 06:28:03;;;;;;;;;;;;;;;13.99;57.17;102193.33;110253;1269;23242;-48
2023/04/09 06:30:36;;;;;;;;;;;;;;;14.01;57.24;102198.34;110273;1269;23113;-48
2023/04/09 06:33:04;;;;;;;;;;;;;;;14.02;57.00;102198.52;110416;1269;22413;-48
2023/04/09 06:35:33;;;;;;;;;;;;;;;14.00;57.29;102198.88;110480;1268;22429;-48
2023/04/09 06:38:03;;;;;;;;;;;;;;;14.08;57.43;102201.58;110417;1273;22527;-48
2023/04/09 06:40:32;;;;;;;;;;;;;;;14.14;57.21;102201.32;110156;1269;22444;-48
2023/04/09 06:43:00;;;;;;;;;;;;;;;14.20;57.25;102201.58;110435;1276;23018;-49
2023/04/09 06:45:31;;;;;;;;;;;;;;;14.30;57.30;102201.63;110395;1276;23130;-48
2023/04/09 06:47:59;;;;;;;;;;;;;;;14.39;56.87;102204.65;109660;1276;1002854;-48
2023/04/09 06:50:30;;;;;;;;;;;;;;;14.45;56.69;102208.95;110438;1268;22437;-48
2023/04/09 06:52:58;;;;;;;;;;;;;;;14.50;56.70;102210.79;110450;1273;22409;-48
2023/04/09 06:55:26;;;;;;;;;;;;;;;14.56;56.56;102208.08;110482;1270;22399;-48
2023/04/09 06:57:55;;;;;;;;;;;;;;;14.60;56.46;102204.69;110451;1269;22486;-48
2023/04/09 07:00:23;;;;;;;;;;;;;;;14.66;56.75;102205.11;110443;1268;22403;-49
2023/04/09 07:03:11;;;;;;;;;;;;;;;14.77;56.62;102199.18;110472;1273;22428;-49
2023/04/09 07:05:43;;;;;;;;;;;;;;;14.86;56.16;102198.86;110308;1272;22474;-49
2023/04/09 07:08:11;;;;;;;;;;;;;;;14.93;56.01;102198.21;110438;1276;22412;-49
2023/04/09 07:10:41;;;;;;;;;;;;;;;15.05;55.96;102199.23;110448;1268;22439;-49
2023/04/09 07:13:11;;;;;;;;;;;;;;;15.15;55.62;102200.10;110453;1276;23028;-50
2023/04/09 07:15:39;;;;;;;;;;;;;;;15.24;55.55;102200.11;110431;1268;22383;-48
2023/04/09 07:18:10;;;;;;;;;;;;;;;15.36;55.39;102201.82;110472;1268;22408;-49
2023/04/09 07:20:38;;;;;;;;;;;;;;;15.47;55.05;102203.21;110436;1276;22392;-49
2023/04/09 07:23:06;;;;;;;;;;;;;;;15.59;54.88;102206.31;110456;1268;22434;-49
2023/04/09 07:25:35;;;;;;;;;;;;;;;15.66;54.57;102206.54;110175;1272;22416;-49
2023/04/09 07:28:03;;;;;;;;;;;;;;;15.68;54.40;102204.91;110499;1268;22432;-49
2023/04/09 07:30:31;;;;;;;;;;;;;;;15.72;54.45;102206.92;110245;1276;22430;-48
2023/04/09 07:33:00;;;;;;;;;;;;;;;15.81;54.35;102206.91;110442;1268;22409;-49
2023/04/09 07:35:28;;;;;;;;;;;;;;;15.91;54.15;102211.43;110466;1268;22423;-49
2023/04/09 07:37:57;;;;;;;;;;;;;;;16.03;53.77;102213.80;110018;1269;1002263;-49
2023/04/09 07:40:26;;;;;;;;;;;;;;;16.18;53.48;102212.27;110441;1276;22370;-49
2023/04/09 07:42:54;;;;;;;;;;;;;;;16.31;53.08;102209.33;110165;1271;22433;-49
2023/04/09 07:45:22;;;;;;;;;;;;;;;16.44;52.95;102211.65;110425;1276;23213;-48
2023/04/09 07:47:54;;;;;;;;;;;;;;;16.55;52.41;102215.99;110186;1272;22445;-49
2023/04/09 07:50:22;;;;;;;;;;;;;;;16.64;52.36;102219.30;110452;1276;23091;-48
2023/04/09 07:52:50;;;;;;;;;;;;;;;16.75;52.12;102215.00;110465;1276;22465;-49
2023/04/09 07:55:19;;;;;;;;;;;;;;;16.83;51.82;102211.63;110194;1271;22518;-48
2023/04/09 07:57:50;;;;;;;;;;;;;;;16.88;51.53;102209.06;110458;1268;22404;-49
2023/04/09 08:00:22;;;;;;;;;;;;;;;16.92;51.23;102212.29;110205;1271;22512;-48
2023/04/09 08:02:56;;;;;;;;;;;;;;;16.93;50.94;102211.20;110468;1268;22393;-49
2023/04/09 08:05:25;;;;;;;;;;;;;;;16.95;51.18;102207.66;110444;1268;22384;-48
2023/04/09 08:07:56;;;;;;;;;;;;;;;16.99;51.38;102206.85;110463;1276;22405;-48
2023/04/09 08:10:24;;;;;;;;;;;;;;;17.09;51.48;102206.95;110447;1269;22429;-48
2023/04/09 08:12:52;;;;;;;;;;;;;;;17.18;50.82;102203.02;110453;1272;22414;-48
2023/04/09 08:15:28;;;;;;;;;;;;;;;17.19;50.41;102205.13;110469;1268;22454;-49
2023/04/09 08:17:57;;;;;;;;;;;;;;;17.20;50.31;102208.42;110480;1268;22407;-49
2023/04/09 08:20:25;;;;;;;;;;;;;;;17.20;50.45;102205.60;110444;1276;22518;-49
2023/04/09 08:22:54;;;;;;;;;;;;;;;17.25;50.27;102204.77;110473;1268;23765;-48
2023/04/09 08:25:22;;;;;;;;;;;;;;;17.30;50.48;102204.80;110447;1273;22417;-48
2023/04/09 08:27:51;;;;;;;;;;;;;;;17.38;50.61;102204.06;110192;1276;22424;-49
2023/04/09 08:30:19;;;;;;;;;;;;;;;17.52;50.76;102200.73;110151;1271;23183;-48
2023/04/09 08:32:48;;;;;;;;;;;;;;;17.66;50.13;102202.79;110441;1268;22472;-49
2023/04/09 08:35:17;;;;;;;;;;;;;;;17.73;49.50;102199.61;110465;1268;22416;-48
2023/04/09 08:37:46;;;;;;;;;;;;;;;17.74;49.25;102200.44;110466;1268;22398;-48
2023/04/09 08:40:15;;;;;;;;;;;;;;;17.73;49.38;102198.03;110482;1268;22413;-48
2023/04/09 08:42:44;;;;;;;;;;;;;;;17.74;49.60;102198.70;110496;1268;22476;-49
2023/04/09 08:45:13;;;;;;;;;;;;;;;17.76;49.60;102195.47;110452;1268;22421;-49
2023/04/09 08:47:41;;;;;;;;;;;;;;;17.81;49.85;102195.86;110192;1276;22451;-48
2023/04/09 08:50:09;;;;;;;;;;;;;;;17.90;49.73;102191.75;109731;1268;1002416;-48
2023/04/09 08:52:38;;;;;;;;;;;;;;;18.02;49.91;102193.50;110171;1272;22477;-48
2023/04/09 08:55:07;;;;;;;;;;;;;;;18.15;49.63;102192.40;110369;1269;22462;-49
2023/04/09 08:57:38;;;;;;;;;;;;;;;18.28;49.66;102186.91;110424;1276;22431;-48
2023/04/09 09:00:09;;;;;;;;;;;;;;;18.40;49.31;102189.67;110420;1276;23122;-48
2023/04/09 09:02:38;;;;;;;;;;;;;;;18.49;48.49;102191.52;110378;1271;23156;-48
2023/04/09 09:05:07;;;;;;;;;;;;;;;18.52;48.24;102193.20;110431;1268;22421;-48
2023/04/09 09:07:51;;;;;;;;;;;;;;;18.52;47.88;102190.75;110421;1268;23058;-48
2023/04/09 09:10:20;;;;;;;;;;;;;;;18.48;48.37;102191.03;110444;1268;22434;-48
2023/04/09 09:12:48;;;;;;;;;;;;;;;18.45;48.89;102188.52;110454;1268;22417;-48
2023/04/09 09:15:26;;;;;;;;;;;;;;;18.42;48.97;102183.10;110433;1268;23236;-48
2023/04/09 09:17:57;;;;;;;;;;;;;;;18.44;49.40;102184.84;110194;1277;23017;-48
2023/04/09 09:20:26;;;;;;;;;;;;;;;18.40;49.64;102184.61;110184;1271;23190;-48
2023/04/09 09:22:55;;;;;;;;;;;;;;;18.44;49.37;102185.02;110498;1268;22444;-48
2023/04/09 09:25:24;;;;;;;;;;;;;;;18.52;49.28;102178.77;110441;1268;22413;-48
2023/04/09 09:27:53;;;;;;;;;;;;;;;18.60;49.19;102182.58;110355;1276;22544;-48
2023/04/09 09:30:22;;;;;;;;;;;;;;;18.65;49.25;102179.75;110201;1271;22426;-48
2023/04/09 09:32:52;;;;;;;;;;;;;;;18.70;49.11;102181.71;110460;1268;23243;-48
2023/04/09 09:35:21;;;;;;;;;;;;;;;18.74;48.74;102177.35;110434;1276;23029;-48
2023/04/09 09:37:59;;;;;;;;;;;;;;;18.87;48.13;102176.73;110366;1276;22440;-48
2023/04/09 09:40:28;;;;;;;;;;;;;;;18.93;47.65;102175.14;110441;1276;23243;-48
2023/04/09 09:42:58;;;;;;;;;;;;;;;18.94;47.91;102173.69;110457;1269;22414;-48
2023/04/09 09:45:26;;;;;;;;;;;;;;;18.93;48.31;102172.30;110459;1276;22376;-49
2023/04/09 09:47:55;;;;;;;;;;;;;;;18.96;48.23;102177.48;110374;1276;22464;-48
2023/04/09 09:50:24;;;;;;;;;;;;;;;19.01;47.86;102178.18;110344;1276;22436;-48
2023/04/09 09:52:53;;;;;;;;;;;;;;;19.04;47.80;102175.79;110212;1269;23109;-49
2023/04/09 09:55:21;;;;;;;;;;;;;;;19.07;47.85;102177.45;110245;1276;23210;-49
2023/04/09 09:57:50;;;;;;;;;;;;;;;19.11;47.55;102176.42;110360;1277;22950;-49
2023/04/09 10:00:24;;;;;;;;;;;;;;;19.15;47.37;102177.17;110370;1270;22417;-49
2023/04/09 10:02:58;;;;;;;;;;;;;;;19.21;47.62;102178.73;110402;1270;22408;-49
2023/04/09 10:05:26;;;;;;;;;;;;;;;19.25;47.62;102175.75;110442;1268;22424;-49
2023/04/09 10:07:56;;;;;;;;;;;;;;;19.30;47.56;102175.40;110455;1268;22486;-48
2023/04/09 10:10:25;;;;;;;;;;;;;;;19.35;47.47;102175.63;110389;1276;22398;-49
2023/04/09 10:12:53;;;;;;;;;;;;;;;19.39;47.57;102172.84;110398;1269;22404;-49
2023/04/09 10:15:22;;;;;;;;;;;;;;;19.43;47.55;102175.50;110462;1268;22411;-49
2023/04/09 10:17:53;;;;;;;;;;;;;;;19.46;47.46;102170.11;110354;1276;23245;-49
2023/04/09 10:20:55;;;;;;;;;;;;;;;19.51;47.51;102169.42;110457;1268;22402;-48
2023/04/09 10:23:34;;;;;;;;;;;;;;;19.41;47.62;102171.14;109979;1277;22438;-49
2023/04/09 10:26:03;;;;;;;;;;;;;;;19.40;47.57;102164.35;109915;1277;23162;-48
2023/04/09 10:28:32;;;;;;;;;;;;;;;19.41;47.40;102162.38;109957;1277;22405;-49
2023/04/09 10:31:05;;;;;;;;;;;;;;;19.39;47.68;102159.09;110007;1276;22548;-49
2023/04/09 10:33:53;;;;;;;;;;;;;;;19.38;48.18;102162.14;109983;1276;22513;-49
2023/04/09 10:36:26;;;;;;;;;;;;;;;19.39;47.94;102162.12;109940;1276;22426;-48
2023/04/09 10:39:09;;;;;;;;;;;;;;;19.34;47.96;102159.09;110000;1276;22451;-49
2023/04/09 10:41:38;;;;;;;;;;;;;;;19.34;47.95;102161.77;109954;1275;23103;-49
2023/04/09 10:44:23;;;;;;;;;;;;;;;19.34;48.28;102157.54;109984;1275;22829;-49
2023/04/09 10:46:53;;;;;;;;;;;;;;;19.34;48.34;102155.25;109982;1276;22493;-49
2023/04/09 10:49:22;;;;;;;;;;;;;;;19.35;48.18;102155.55;110020;1275;23198;-49
2023/04/09 10:52:09;;;;;;;;;;;;;;;19.35;48.16;102150.30;109922;1277;22458;-49
2023/04/09 10:54:45;;;;;;;;;;;;;;;19.36;47.73;102152.69;109980;1276;23216;-49
2023/04/09 10:57:18;;;;;;;;;;;;;;;19.39;47.15;102155.58;109994;1276;22416;-49
2023/04/09 10:59:51;;;;;;;;;;;;;;;19.39;46.86;102161.02;110328;1268;22451;-49
2023/04/09 11:02:22;;;;;;;;;;;;;;;19.41;46.94;102157.98;110464;1269;22452;-49
2023/04/09 11:05:02;;;;;;;;;;;;;;;19.39;47.21;102159.62;110450;1276;22423;-49
2023/04/09 11:07:32;;;;;;;;;;;;;;;19.41;47.26;102161.15;110478;1268;22450;-50
2023/04/09 11:10:01;;;;;;;;;;;;;;;19.45;46.99;102158.36;110194;1271;23079;-49
2023/04/09 11:12:34;;;;;;;;;;;;;;;19.47;46.55;102159.50;110466;1268;22608;-49
2023/04/09 11:15:03;;;;;;;;;;;;;;;19.48;46.46;102157.70;110452;1273;22466;-49
2023/04/09 11:17:36;;;;;;;;;;;;;;;19.48;46.30;102151.73;110461;1276;23119;-49
2023/04/09 11:20:08;;;;;;;;;;;;;;;19.44;46.61;102152.21;109677;1269;1002889;-49
2023/04/09 11:22:38;;;;;;;;;;;;;;;19.41;46.72;102151.66;110480;1268;22454;-48
2023/04/09 11:25:07;;;;;;;;;;;;;;;19.37;46.67;102152.86;110491;1268;23028;-48
2023/04/09 11:27:36;;;;;;;;;;;;;;;19.32;46.88;102149.33;110441;1268;22432;-49
2023/04/09 11:30:12;;;;;;;;;;;;;;;19.27;46.97;102144.20;110486;1268;23279;-49
2023/04/09 11:32:51;;;;;;;;;;;;;;;19.23;47.50;102142.59;110435;1276;22432;-49
2023/04/09 11:35:20;;;;;;;;;;;;;;;19.21;47.25;102140.22;110435;1269;22427;-49
2023/04/09 11:37:54;;;;;;;;;;;;;;;19.17;47.61;102144.02;110362;1268;22445;-48
2023/04/09 11:40:27;;;;;;;;;;;;;;;19.13;48.05;102147.52;110527;1268;22377;-49
2023/04/09 11:42:58;;;;;;;;;;;;;;;19.08;47.54;102150.49;110507;1268;22387;-49
2023/04/09 11:45:28;;;;;;;;;;;;;;;19.02;47.16;102150.73;110513;1268;22427;-49
2023/04/09 11:47:57;;;;;;;;;;;;;;;18.98;47.07;102149.28;110379;1276;22473;-49
2023/04/09 11:50:28;;;;;;;;;;;;;;;18.93;46.26;102145.93;110199;1276;22428;-49
2023/04/09 11:52:57;;;;;;;;;;;;;;;18.90;45.95;102143.23;110511;1268;22405;-48
2023/04/09 11:55:29;;;;;;;;;;;;;;;18.85;46.02;102145.00;110224;1271;22425;-49
2023/04/09 11:57:59;;;;;;;;;;;;;;;18.83;46.04;102145.06;110076;1274;22439;-48
2023/04/09 12:00:28;;;;;;;;;;;;;;;18.83;45.05;102144.88;110484;1268;23516;-48
2023/04/09 12:02:58;;;;;;;;;;;;;;;18.87;44.14;102137.54;110469;1268;23092;-49
2023/04/09 12:05:48;;;;;;;;;;;;;;;18.94;43.80;102130.96;110481;1276;23105;-48
2023/04/09 12:08:21;;;;;;;;;;;;;;;19.02;43.64;102132.23;110475;1274;22409;-49
2023/04/09 12:10:56;;;;;;;;;;;;;;;19.10;43.03;102129.86;110479;1276;22426;-48
2023/04/09 12:13:33;;;;;;;;;;;;;;;19.17;42.90;102130.48;110500;1268;23124;-48
2023/04/09 12:16:08;;;;;;;;;;;;;;;19.22;43.44;102128.89;110221;1276;23266;-48
2023/04/09 12:19:06;;;;;;;;;;;;;;;19.26;44.18;102132.63;110465;1268;22475;-49
2023/04/09 12:21:57;;;;;;;;;;;;;;;19.28;44.59;102128.34;110201;1268;22699;-48
2023/04/09 12:24:26;;;;;;;;;;;;;;;19.27;44.17;102125.37;110262;1276;22443;-49
2023/04/09 12:26:56;;;;;;;;;;;;;;;19.27;43.96;102128.38;110432;1270;22410;-48
2023/04/09 12:29:25;;;;;;;;;;;;;;;19.26;42.71;102125.95;110486;1268;22392;-49
2023/04/09 12:31:55;;;;;;;;;;;;;;;19.25;41.88;102125.80;110482;1268;22449;-48
2023/04/09 12:34:26;;;;;;;;;;;;;;;19.20;40.82;102129.34;110418;1276;22406;-49
2023/04/09 12:37:01;;;;;;;;;;;;;;;19.08;40.79;102123.77;110204;1271;22462;-49
2023/04/09 12:39:29;;;;;;;;;;;;;;;19.01;40.70;102121.91;110527;1276;23073;-48
2023/04/09 12:42:03;;;;;;;;;;;;;;;18.97;40.62;102120.46;110400;1276;22429;-48
2023/04/09 12:44:36;;;;;;;;;;;;;;;18.93;40.11;102121.16;110513;1268;22420;-48
2023/04/09 12:47:04;;;;;;;;;;;;;;;18.90;40.05;102119.31;110522;1272;22457;-48